sensor_id;sensor_type;location;lat;lon;timestamp;pressure;altitude;pressure_sealevel;temperature;humidity
14295;BME280;7231;59.370;18.016;2023-03-19T00:02:11;101091.88;;;3.90;100.00
14295;BME280;7231;59.370;18.016;2023-03-19T00:04:45;101066.19;;;3.80;100.00
14295;BME280;7231;59.370;18.016;2023-03-19T00:07:14;101092.22;;;3.97;100.00
14295;BME280;7231;59.370;18.016;2023-03-19T00:09:43;101088.03;;;3.99;100.00
14295;BME280;7231;59.370;18.016;2023-03-19T00:12:14;101091.50;;;3.99;100.00
14295;BME280;7231;59.370;18.016;2023-03-19T00:14:42;101100.09;;;3.98;100.00
14295;BME280;7231;59.370;18.016;2023-03-19T00:17:10;101099.03;;;3.95;100.00
14295;BME280;7231;59.370;18.016;2023-03-19T00:19:40;101105.56;;;3.88;100.00
14295;BME280;7231;59.370;18.016;2023-03-19T00:22:09;101099.91;;;3.80;100.00
14295;BME280;7231;59.370;18.016;2023-03-19T00:24:37;101102.16;;;3.74;100.00
14295;BME280;7231;59.370;18.016;2023-03-19T00:27:05;100994.00;;;3.14;100.00
14295;BME280;7231;59.370;18.016;2023-03-19T00:29:33;101098.66;;;3.74;100.00
14295;BME280;7231;59.370;18.016;2023-03-19T00:32:01;101109.50;;;3.81;100.00
14295;BME280;7231;59.370;18.016;2023-03-19T00:34:29;101102.59;;;3.82;100.00
14295;BME280;7231;59.370;18.016;2023-03-19T00:36:57;101111.28;;;3.82;100.00
14295;BME280;7231;59.370;18.016;2023-03-19T00:39:27;101105.28;;;3.83;100.00
14295;BME280;7231;59.370;18.016;2023-03-19T00:41:55;101102.59;;;3.82;100.00
14295;BME280;7231;59.370;18.016;2023-03-19T00:44:22;101106.28;;;3.85;100.00
14295;BME280;7231;59.370;18.016;2023-03-19T00:46:51;101110.56;;;3.85;100.00
14295;BME280;7231;59.370;18.016;2023-03-19T00:49:19;101113.16;;;3.85;100.00
14295;BME280;7231;59.370;18.016;2023-03-19T00:51:46;101088.28;;;3.74;100.00
14295;BME280;7231;59.370;18.016;2023-03-19T00:54:14;101117.53;;;3.86;100.00
14295;BME280;7231;59.370;18.016;2023-03-19T00:56:44;101121.22;;;3.89;100.00
14295;BME280;7231;59.370;18.016;2023-03-19T00:59:13;101117.91;;;3.92;100.00
14295;BME280;7231;59.370;18.016;2023-03-19T01:01:41;101119.69;;;3.93;100.00
14295;BME280;7231;59.370;18.016;2023-03-19T01:04:09;101106.81;;;3.80;100.00
14295;BME280;7231;59.370;18.016;2023-03-19T01:06:38;101116.56;;;3.84;100.00
14295;BME280;7231;59.370;18.016;2023-03-19T01:09:06;101135.78;;;3.87;100.00
14295;BME280;7231;59.370;18.016;2023-03-19T01:11:34;101133.09;;;3.86;100.00
14295;BME280;7231;59.370;18.016;2023-03-19T01:14:03;101100.09;;;3.69;100.00
14295;BME280;7231;59.370;18.016;2023-03-19T01:16:32;101135.69;;;3.86;100.00
14295;BME280;7231;59.370;18.016;2023-03-19T01:19:01;101116.09;;;3.76;100.00
14295;BME280;7231;59.370;18.016;2023-03-19T01:21:30;101137.31;;;3.84;100.00
14295;BME280;7231;59.370;18.016;2023-03-19T01:23:58;101128.81;;;3.86;100.00
14295;BME280;7231;59.370;18.016;2023-03-19T01:26:26;101130.69;;;3.89;100.00
14295;BME280;7231;59.370;18.016;2023-03-19T01:28:54;101121.03;;;3.86;100.00
14295;BME280;7231;59.370;18.016;2023-03-19T01:31:23;101131.06;;;3.95;100.00
14295;BME280;7231;59.370;18.016;2023-03-19T01:33:51;101124.34;;;3.99;100.00
14295;BME280;7231;59.370;18.016;2023-03-19T01:36:19;101132.22;;;4.00;100.00
14295;BME280;7231;59.370;18.016;2023-03-19T01:38:47;101093.66;;;3.77;100.00
14295;BME280;7231;59.370;18.016;2023-03-19T01:41:15;101140.91;;;4.01;100.00
14295;BME280;7231;59.370;18.016;2023-03-19T01:43:44;101136.50;;;4.00;100.00
14295;BME280;7231;59.370;18.016;2023-03-19T01:46:15;101135.78;;;4.02;100.00
14295;BME280;7231;59.370;18.016;2023-03-19T01:48:53;101137.59;;;4.03;100.00
14295;BME280;7231;59.370;18.016;2023-03-19T01:51:25;101116.75;;;3.87;100.00
14295;BME280;7231;59.370;18.016;2023-03-19T01:53:56;101141.16;;;4.05;100.00
14295;BME280;7231;59.370;18.016;2023-03-19T01:56:27;101152.53;;;4.07;100.00
14295;BME280;7231;59.370;18.016;2023-03-19T01:59:01;101150.91;;;4.09;100.00
14295;BME280;7231;59.370;18.016;2023-03-19T02:01:32;101161.31;;;4.09;100.00
14295;BME280;7231;59.370;18.016;2023-03-19T02:04:03;101153.59;;;4.11;100.00
14295;BME280;7231;59.370;18.016;2023-03-19T02:06:33;101123.34;;;3.97;100.00
14295;BME280;7231;59.370;18.016;2023-03-19T02:09:02;101112.53;;;3.89;100.00
14295;BME280;7231;59.370;18.016;2023-03-19T02:11:30;101099.72;;;3.77;100.00
14295;BME280;7231;59.370;18.016;2023-03-19T02:13:58;101152.44;;;4.06;100.00
14295;BME280;7231;59.370;18.016;2023-03-19T02:16:26;101136.69;;;4.03;100.00
14295;BME280;7231;59.370;18.016;2023-03-19T02:18:55;101125.97;;;3.97;100.00
14295;BME280;7231;59.370;18.016;2023-03-19T02:21:24;101152.88;;;4.13;100.00
14295;BME280;7231;59.370;18.016;2023-03-19T02:23:56;101157.28;;;4.14;100.00
14295;BME280;7231;59.370;18.016;2023-03-19T02:26:30;101162.47;;;4.14;100.00
14295;BME280;7231;59.370;18.016;2023-03-19T02:28:58;101158.16;;;4.15;100.00
14295;BME280;7231;59.370;18.016;2023-03-19T02:31:26;101132.03;;;3.97;100.00
14295;BME280;7231;59.370;18.016;2023-03-19T02:33:56;101141.97;;;4.04;100.00
14295;BME280;7231;59.370;18.016;2023-03-19T02:36:25;101130.97;;;3.94;100.00
14295;BME280;7231;59.370;18.016;2023-03-19T02:38:57;101146.00;;;3.99;100.00
14295;BME280;7231;59.370;18.016;2023-03-19T02:41:30;101169.53;;;4.17;100.00
14295;BME280;7231;59.370;18.016;2023-03-19T02:44:01;101176.53;;;4.18;100.00
14295;BME280;7231;59.370;18.016;2023-03-19T02:46:30;101173.91;;;4.18;100.00
14295;BME280;7231;59.370;18.016;2023-03-19T02:48:58;101134.44;;;3.94;100.00
14295;BME280;7231;59.370;18.016;2023-03-19T02:51:26;101122.72;;;3.86;100.00
14295;BME280;7231;59.370;18.016;2023-03-19T02:53:56;101180.00;;;4.18;100.00
14295;BME280;7231;59.370;18.016;2023-03-19T02:56:26;101190.38;;;4.18;100.00
14295;BME280;7231;59.370;18.016;2023-03-19T02:58:56;101188.59;;;4.17;100.00
14295;BME280;7231;59.370;18.016;2023-03-19T03:01:24;101191.63;;;4.10;100.00
14295;BME280;7231;59.370;18.016;2023-03-19T03:03:52;101204.00;;;4.14;100.00
14295;BME280;7231;59.370;18.016;2023-03-19T03:06:20;101220.47;;;4.15;100.00
14295;BME280;7231;59.370;18.016;2023-03-19T03:08:48;101210.88;;;4.14;100.00
14295;BME280;7231;59.370;18.016;2023-03-19T03:11:16;101205.78;;;4.15;100.00
14295;BME280;7231;59.370;18.016;2023-03-19T03:13:44;101184.19;;;4.02;100.00
14295;BME280;7231;59.370;18.016;2023-03-19T03:16:13;101192.97;;;4.04;100.00
14295;BME280;7231;59.370;18.016;2023-03-19T03:18:42;101216.97;;;4.14;100.00
14295;BME280;7231;59.370;18.016;2023-03-19T03:21:11;101213.47;;;4.14;100.00
14295;BME280;7231;59.370;18.016;2023-03-19T03:23:39;101216.06;;;4.14;100.00
14295;BME280;7231;59.370;18.016;2023-03-19T03:26:07;101209.97;;;4.13;100.00
14295;BME280;7231;59.370;18.016;2023-03-19T03:28:35;101225.66;;;4.15;100.00
14295;BME280;7231;59.370;18.016;2023-03-19T03:31:03;101212.56;;;4.13;100.00
14295;BME280;7231;59.370;18.016;2023-03-19T03:33:32;101179.28;;;3.91;100.00
14295;BME280;7231;59.370;18.016;2023-03-19T03:36:00;101218.47;;;4.11;100.00
14295;BME280;7231;59.370;18.016;2023-03-19T03:38:29;101101.31;;;3.46;100.00
14295;BME280;7231;59.370;18.016;2023-03-19T03:40:58;101200.56;;;4.01;100.00
14295;BME280;7231;59.370;18.016;2023-03-19T03:43:26;101201.66;;;4.04;100.00
14295;BME280;7231;59.370;18.016;2023-03-19T03:45:54;101201.84;;;4.07;100.00
14295;BME280;7231;59.370;18.016;2023-03-19T03:48:22;101177.28;;;3.87;100.00
14295;BME280;7231;59.370;18.016;2023-03-19T03:50:53;101212.31;;;4.09;100.00
14295;BME280;7231;59.370;18.016;2023-03-19T03:53:20;101219.19;;;4.08;100.00
14295;BME280;7231;59.370;18.016;2023-03-19T03:55:48;101220.88;;;4.08;100.00
14295;BME280;7231;59.370;18.016;2023-03-19T03:58:17;101147.56;;;3.68;100.00
14295;BME280;7231;59.370;18.016;2023-03-19T04:00:45;101215.53;;;4.05;100.00
14295;BME280;7231;59.370;18.016;2023-03-19T04:03:14;101226.59;;;4.02;100.00
14295;BME280;7231;59.370;18.016;2023-03-19T04:05:43;101233.22;;;3.97;100.00
14295;BME280;7231;59.370;18.016;2023-03-19T04:08:13;101241.81;;;3.96;100.00
14295;BME280;7231;59.370;18.016;2023-03-19T04:10:43;101185.38;;;3.64;100.00
14295;BME280;7231;59.370;18.016;2023-03-19T04:13:11;101221.09;;;3.83;100.00
14295;BME280;7231;59.370;18.016;2023-03-19T04:15:40;101165.69;;;3.53;100.00
14295;BME280;7231;59.370;18.016;2023-03-19T04:18:09;101231.88;;;3.89;100.00
14295;BME280;7231;59.370;18.016;2023-03-19T04:20:37;101236.84;;;3.86;100.00
14295;BME280;7231;59.370;18.016;2023-03-19T04:23:05;101237.56;;;3.83;100.00
14295;BME280;7231;59.370;18.016;2023-03-19T04:25:38;101195.56;;;3.61;100.00
14295;BME280;7231;59.370;18.016;2023-03-19T04:28:06;101199.56;;;3.56;100.00
14295;BME280;7231;59.370;18.016;2023-03-19T04:30:36;101206.53;;;3.57;100.00
14295;BME280;7231;59.370;18.016;2023-03-19T04:33:05;101233.31;;;3.71;100.00
14295;BME280;7231;59.370;18.016;2023-03-19T04:35:33;101241.47;;;3.77;100.00
14295;BME280;7231;59.370;18.016;2023-03-19T04:38:01;101234.50;;;3.76;100.00
14295;BME280;7231;59.370;18.016;2023-03-19T04:40:29;101237.53;;;3.69;100.00
14295;BME280;7231;59.370;18.016;2023-03-19T04:42:59;101242.91;;;3.72;100.00
14295;BME280;7231;59.370;18.016;2023-03-19T04:45:27;101240.13;;;3.69;100.00
14295;BME280;7231;59.370;18.016;2023-03-19T04:47:55;101245.13;;;3.66;100.00
14295;BME280;7231;59.370;18.016;2023-03-19T04:50:23;101245.81;;;3.63;100.00
14295;BME280;7231;59.370;18.016;2023-03-19T04:52:51;101113.97;;;2.85;100.00
14295;BME280;7231;59.370;18.016;2023-03-19T04:55:22;101229.59;;;3.52;100.00
14295;BME280;7231;59.370;18.016;2023-03-19T04:57:50;101240.88;;;3.53;100.00
14295;BME280;7231;59.370;18.016;2023-03-19T05:00:20;101259.69;;;3.64;100.00
14295;BME280;7231;59.370;18.016;2023-03-19T05:02:48;101254.50;;;3.64;100.00
14295;BME280;7231;59.370;18.016;2023-03-19T05:05:16;101244.72;;;3.59;100.00
14295;BME280;7231;59.370;18.016;2023-03-19T05:07:45;101257.97;;;3.64;100.00
14295;BME280;7231;59.370;18.016;2023-03-19T05:10:13;101263.25;;;3.66;100.00
14295;BME280;7231;59.370;18.016;2023-03-19T05:12:41;101272.03;;;3.68;100.00
14295;BME280;7231;59.370;18.016;2023-03-19T05:15:09;101259.88;;;3.67;100.00
14295;BME280;7231;59.370;18.016;2023-03-19T05:17:39;101259.97;;;3.68;100.00
14295;BME280;7231;59.370;18.016;2023-03-19T05:20:08;101255.59;;;3.67;100.00
14295;BME280;7231;59.370;18.016;2023-03-19T05:22:37;101248.41;;;3.63;100.00
14295;BME280;7231;59.370;18.016;2023-03-19T05:25:05;101246.81;;;3.65;100.00
14295;BME280;7231;59.370;18.016;2023-03-19T05:27:34;101257.19;;;3.65;100.00
14295;BME280;7231;59.370;18.016;2023-03-19T05:30:02;101259.78;;;3.65;100.00
14295;BME280;7231;59.370;18.016;2023-03-19T05:32:31;101259.88;;;3.67;100.00
14295;BME280;7231;59.370;18.016;2023-03-19T05:35:00;101258.97;;;3.66;100.00
14295;BME280;7231;59.370;18.016;2023-03-19T05:37:29;101249.63;;;3.55;100.00
14295;BME280;7231;59.370;18.016;2023-03-19T05:39:57;101283.31;;;3.68;100.00
14295;BME280;7231;59.370;18.016;2023-03-19T05:42:25;101281.72;;;3.70;100.00
14295;BME280;7231;59.370;18.016;2023-03-19T05:44:53;101279.22;;;3.72;100.00
14295;BME280;7231;59.370;18.016;2023-03-19T05:47:21;101283.69;;;3.74;100.00
14295;BME280;7231;59.370;18.016;2023-03-19T05:49:49;101273.94;;;3.70;100.00
14295;BME280;7231;59.370;18.016;2023-03-19T05:52:19;101269.06;;;3.62;100.00
14295;BME280;7231;59.370;18.016;2023-03-19T05:54:46;101300.63;;;3.82;100.00
14295;BME280;7231;59.370;18.016;2023-03-19T05:57:16;101305.28;;;3.88;100.00
14295;BME280;7231;59.370;18.016;2023-03-19T05:59:43;101313.28;;;3.91;100.00
14295;BME280;7231;59.370;18.016;2023-03-19T06:02:11;101309.16;;;3.95;100.00
14295;BME280;7231;59.370;18.016;2023-03-19T06:04:40;101297.50;;;3.88;100.00
14295;BME280;7231;59.370;18.016;2023-03-19T06:07:08;101307.47;;;3.95;100.00
14295;BME280;7231;59.370;18.016;2023-03-19T06:09:38;101310.16;;;3.97;100.00
14295;BME280;7231;59.370;18.016;2023-03-19T06:12:07;101315.53;;;4.00;100.00
14295;BME280;7231;59.370;18.016;2023-03-19T06:14:35;101313.84;;;4.00;100.00
14295;BME280;7231;59.370;18.016;2023-03-19T06:17:03;101326.38;;;4.07;100.00
14295;BME280;7231;59.370;18.016;2023-03-19T06:19:31;101327.66;;;4.14;100.00
14295;BME280;7231;59.370;18.016;2023-03-19T06:21:59;101315.41;;;4.11;100.00
14295;BME280;7231;59.370;18.016;2023-03-19T06:24:27;101322.13;;;4.22;100.00
14295;BME280;7231;59.370;18.016;2023-03-19T06:26:57;101299.91;;;4.13;100.00
14295;BME280;7231;59.370;18.016;2023-03-19T06:29:25;101292.13;;;4.13;100.00
14295;BME280;7231;59.370;18.016;2023-03-19T06:31:53;101322.50;;;4.29;100.00
14295;BME280;7231;59.370;18.016;2023-03-19T06:34:23;101328.69;;;4.31;100.00
14295;BME280;7231;59.370;18.016;2023-03-19T06:36:52;101332.19;;;4.31;100.00
14295;BME280;7231;59.370;18.016;2023-03-19T06:39:20;101337.28;;;4.30;100.00
14295;BME280;7231;59.370;18.016;2023-03-19T06:41:48;101323.22;;;4.26;100.00
14295;BME280;7231;59.370;18.016;2023-03-19T06:44:18;101338.72;;;4.39;100.00
14295;BME280;7231;59.370;18.016;2023-03-19T06:46:46;101321.28;;;4.37;100.00
14295;BME280;7231;59.370;18.016;2023-03-19T06:49:14;101344.94;;;4.56;100.00
14295;BME280;7231;59.370;18.016;2023-03-19T06:51:42;101203.75;;;3.82;100.00
14295;BME280;7231;59.370;18.016;2023-03-19T06:54:10;101345.50;;;4.65;100.00
14295;BME280;7231;59.370;18.016;2023-03-19T06:56:38;101348.38;;;4.70;100.00
14295;BME280;7231;59.370;18.016;2023-03-19T06:59:06;101348.63;;;4.74;100.00
14295;BME280;7231;59.370;18.016;2023-03-19T07:01:39;101350.34;;;4.74;100.00
14295;BME280;7231;59.370;18.016;2023-03-19T07:04:08;101321.56;;;4.56;100.00
14295;BME280;7231;59.370;18.016;2023-03-19T07:06:36;101351.50;;;4.79;100.00
14295;BME280;7231;59.370;18.016;2023-03-19T07:09:04;101350.06;;;4.84;100.00
14295;BME280;7231;59.370;18.016;2023-03-19T07:11:32;101354.84;;;4.91;100.00
14295;BME280;7231;59.370;18.016;2023-03-19T07:14:01;101338.59;;;4.80;100.00
14295;BME280;7231;59.370;18.016;2023-03-19T07:16:29;101303.84;;;4.64;100.00
14295;BME280;7231;59.370;18.016;2023-03-19T07:19:00;101362.28;;;5.00;100.00
14295;BME280;7231;59.370;18.016;2023-03-19T07:21:28;101360.75;;;5.03;100.00
14295;BME280;7231;59.370;18.016;2023-03-19T07:23:56;101360.13;;;5.07;100.00
14295;BME280;7231;59.370;18.016;2023-03-19T07:26:24;101362.09;;;5.11;100.00
14295;BME280;7231;59.370;18.016;2023-03-19T07:28:53;101370.25;;;5.17;100.00
14295;BME280;7231;59.370;18.016;2023-03-19T07:31:21;101370.47;;;5.22;100.00
14295;BME280;7231;59.370;18.016;2023-03-19T07:33:49;101373.25;;;5.25;100.00
14295;BME280;7231;59.370;18.016;2023-03-19T07:36:18;101376.03;;;5.28;100.00
14295;BME280;7231;59.370;18.016;2023-03-19T07:38:47;101377.00;;;5.30;100.00
14295;BME280;7231;59.370;18.016;2023-03-19T07:41:17;101365.16;;;5.35;100.00
14295;BME280;7231;59.370;18.016;2023-03-19T07:43:45;101319.88;;;5.15;100.00
14295;BME280;7231;59.370;18.016;2023-03-19T07:46:13;101376.63;;;5.53;100.00
14295;BME280;7231;59.370;18.016;2023-03-19T07:48:41;101373.97;;;5.68;100.00
14295;BME280;7231;59.370;18.016;2023-03-19T07:51:09;101375.56;;;5.81;100.00
14295;BME280;7231;59.370;18.016;2023-03-19T07:53:39;101364.69;;;5.88;100.00
14295;BME280;7231;59.370;18.016;2023-03-19T07:56:07;101373.84;;;5.96;100.00
14295;BME280;7231;59.370;18.016;2023-03-19T07:58:35;101374.19;;;6.02;100.00
14295;BME280;7231;59.370;18.016;2023-03-19T08:01:03;101378.19;;;6.12;100.00
14295;BME280;7231;59.370;18.016;2023-03-19T08:03:33;101325.31;;;5.82;100.00
14295;BME280;7231;59.370;18.016;2023-03-19T08:06:00;101372.81;;;6.09;100.00
14295;BME280;7231;59.370;18.016;2023-03-19T08:08:29;101394.06;;;6.16;100.00
14295;BME280;7231;59.370;18.016;2023-03-19T08:11:02;101389.53;;;5.98;100.00
14295;BME280;7231;59.370;18.016;2023-03-19T08:13:30;101394.31;;;5.90;100.00
14295;BME280;7231;59.370;18.016;2023-03-19T08:15:58;101376.94;;;5.74;100.00
14295;BME280;7231;59.370;18.016;2023-03-19T08:18:26;101402.06;;;5.74;100.00
14295;BME280;7231;59.370;18.016;2023-03-19T08:20:54;101390.59;;;5.55;100.00
14295;BME280;7231;59.370;18.016;2023-03-19T08:23:22;101393.22;;;5.55;100.00
14295;BME280;7231;59.370;18.016;2023-03-19T08:25:50;101391.22;;;5.66;100.00
14295;BME280;7231;59.370;18.016;2023-03-19T08:28:20;101387.69;;;5.80;100.00
14295;BME280;7231;59.370;18.016;2023-03-19T08:30:48;101376.00;;;5.88;100.00
14295;BME280;7231;59.370;18.016;2023-03-19T08:33:16;101351.81;;;5.75;100.00
14295;BME280;7231;59.370;18.016;2023-03-19T08:35:44;101323.91;;;5.72;100.00
14295;BME280;7231;59.370;18.016;2023-03-19T08:38:12;101385.59;;;6.21;100.00
14295;BME280;7231;59.370;18.016;2023-03-19T08:40:41;101387.41;;;6.38;100.00
14295;BME280;7231;59.370;18.016;2023-03-19T08:43:09;101388.28;;;6.55;100.00
14295;BME280;7231;59.370;18.016;2023-03-19T08:45:38;101376.56;;;6.63;100.00
14295;BME280;7231;59.370;18.016;2023-03-19T08:48:08;101386.00;;;6.77;100.00
14295;BME280;7231;59.370;18.016;2023-03-19T08:50:36;101373.69;;;6.74;100.00
14295;BME280;7231;59.370;18.016;2023-03-19T08:53:05;101388.75;;;6.80;100.00
14295;BME280;7231;59.370;18.016;2023-03-19T08:55:33;101388.53;;;6.75;100.00
14295;BME280;7231;59.370;18.016;2023-03-19T08:58:06;101395.63;;;6.62;100.00
14295;BME280;7231;59.370;18.016;2023-03-19T09:00:34;101391.53;;;6.50;100.00
14295;BME280;7231;59.370;18.016;2023-03-19T09:03:03;101379.66;;;6.39;100.00
14295;BME280;7231;59.370;18.016;2023-03-19T09:05:32;101386.81;;;6.43;100.00
14295;BME280;7231;59.370;18.016;2023-03-19T09:08:00;101418.91;;;6.42;100.00
14295;BME280;7231;59.370;18.016;2023-03-19T09:10:29;101400.56;;;6.41;100.00
14295;BME280;7231;59.370;18.016;2023-03-19T09:12:57;101358.81;;;6.23;100.00
14295;BME280;7231;59.370;18.016;2023-03-19T09:15:25;101396.59;;;6.47;100.00
14295;BME280;7231;59.370;18.016;2023-03-19T09:17:54;101387.16;;;6.33;100.00
14295;BME280;7231;59.370;18.016;2023-03-19T09:20:24;101402.59;;;6.30;100.00
14295;BME280;7231;59.370;18.016;2023-03-19T09:22:52;101396.59;;;6.47;100.00
14295;BME280;7231;59.370;18.016;2023-03-19T09:25:21;101398.41;;;6.99;100.00
14295;BME280;7231;59.370;18.016;2023-03-19T09:27:49;101396.91;;;7.38;100.00
14295;BME280;7231;59.370;18.016;2023-03-19T09:30:17;101413.63;;;7.41;100.00
14295;BME280;7231;59.370;18.016;2023-03-19T09:32:45;101406.53;;;7.39;99.76
14295;BME280;7231;59.370;18.016;2023-03-19T09:35:13;101403.16;;;7.24;99.15
14295;BME280;7231;59.370;18.016;2023-03-19T09:37:43;101404.56;;;7.17;99.45
14295;BME280;7231;59.370;18.016;2023-03-19T09:40:15;101413.59;;;7.24;98.97
14295;BME280;7231;59.370;18.016;2023-03-19T09:42:54;101407.94;;;7.32;98.34
14295;BME280;7231;59.370;18.016;2023-03-19T09:45:26;101398.19;;;7.28;98.02
14295;BME280;7231;59.370;18.016;2023-03-19T09:47:58;101367.59;;;7.08;97.70
14295;BME280;7231;59.370;18.016;2023-03-19T09:50:30;101306.44;;;6.67;96.60
14295;BME280;7231;59.370;18.016;2023-03-19T09:53:05;101382.03;;;7.01;96.46
14295;BME280;7231;59.370;18.016;2023-03-19T09:55:42;101418.59;;;7.19;97.00
14295;BME280;7231;59.370;18.016;2023-03-19T09:58:16;101373.47;;;7.04;97.64
14295;BME280;7231;59.370;18.016;2023-03-19T10:00:48;101397.06;;;7.23;97.82
14295;BME280;7231;59.370;18.016;2023-03-19T10:03:34;101406.09;;;7.47;97.82
14295;BME280;7231;59.370;18.016;2023-03-19T10:06:16;101405.72;;;7.58;97.68
14295;BME280;7231;59.370;18.016;2023-03-19T10:09:02;101406.84;;;7.63;96.79
14295;BME280;7231;59.370;18.016;2023-03-19T10:11:44;101407.06;;;7.67;97.12
14295;BME280;7231;59.370;18.016;2023-03-19T10:14:36;101373.44;;;7.56;96.91
14295;BME280;7231;59.370;18.016;2023-03-19T10:17:12;101412.34;;;7.87;96.40
14295;BME280;7231;59.370;18.016;2023-03-19T10:19:45;101406.81;;;7.98;96.08
14295;BME280;7231;59.370;18.016;2023-03-19T10:22:16;101395.59;;;8.01;95.88
14295;BME280;7231;59.370;18.016;2023-03-19T10:24:49;101401.47;;;8.14;95.75
14295;BME280;7231;59.370;18.016;2023-03-19T10:27:22;101347.69;;;8.00;96.05
14295;BME280;7231;59.370;18.016;2023-03-19T10:29:52;101381.88;;;8.42;96.01
14295;BME280;7231;59.370;18.016;2023-03-19T10:32:27;101394.19;;;8.64;95.22
14295;BME280;7231;59.370;18.016;2023-03-19T10:35:05;101399.88;;;8.74;94.81
14295;BME280;7231;59.370;18.016;2023-03-19T10:37:35;101363.72;;;8.64;94.06
14295;BME280;7231;59.370;18.016;2023-03-19T10:40:14;101369.47;;;8.76;93.66
14295;BME280;7231;59.370;18.016;2023-03-19T10:42:55;101385.97;;;8.95;93.36
14295;BME280;7231;59.370;18.016;2023-03-19T10:45:30;101388.22;;;9.06;93.72
14295;BME280;7231;59.370;18.016;2023-03-19T10:48:00;101395.56;;;9.15;93.47
14295;BME280;7231;59.370;18.016;2023-03-19T10:50:30;101396.00;;;9.26;93.17
14295;BME280;7231;59.370;18.016;2023-03-19T10:53:04;101399.06;;;9.36;92.69
14295;BME280;7231;59.370;18.016;2023-03-19T10:55:34;101411.97;;;9.32;92.61
14295;BME280;7231;59.370;18.016;2023-03-19T10:58:05;101391.47;;;9.22;91.97
14295;BME280;7231;59.370;18.016;2023-03-19T11:00:33;101409.34;;;9.32;91.35
14295;BME280;7231;59.370;18.016;2023-03-19T11:03:02;101411.13;;;9.33;91.16
14295;BME280;7231;59.370;18.016;2023-03-19T11:05:32;101414.66;;;9.33;90.00
14295;BME280;7231;59.370;18.016;2023-03-19T11:08:02;101395.44;;;9.12;88.95
14295;BME280;7231;59.370;18.016;2023-03-19T11:10:34;101417.94;;;9.08;88.99
14295;BME280;7231;59.370;18.016;2023-03-19T11:13:05;101407.97;;;9.00;88.32
14295;BME280;7231;59.370;18.016;2023-03-19T11:15:36;101414.09;;;9.00;89.14
14295;BME280;7231;59.370;18.016;2023-03-19T11:18:07;101425.47;;;8.82;88.00
14295;BME280;7231;59.370;18.016;2023-03-19T11:20:37;101404.09;;;8.71;89.09
14295;BME280;7231;59.370;18.016;2023-03-19T11:23:10;101400.28;;;8.84;89.63
14295;BME280;7231;59.370;18.016;2023-03-19T11:25:41;101406.75;;;8.92;88.99
14295;BME280;7231;59.370;18.016;2023-03-19T11:28:15;101410.13;;;8.89;88.57
14295;BME280;7231;59.370;18.016;2023-03-19T11:31:03;101404.69;;;8.85;88.20
14295;BME280;7231;59.370;18.016;2023-03-19T11:33:41;101401.84;;;8.99;88.73
14295;BME280;7231;59.370;18.016;2023-03-19T11:36:19;101394.84;;;9.19;88.60
14295;BME280;7231;59.370;18.016;2023-03-19T11:38:56;101390.00;;;9.28;88.05
14295;BME280;7231;59.370;18.016;2023-03-19T11:41:39;101393.13;;;9.20;87.53
14295;BME280;7231;59.370;18.016;2023-03-19T11:44:14;101373.91;;;8.98;87.41
14295;BME280;7231;59.370;18.016;2023-03-19T11:46:50;101387.44;;;9.09;88.29
14295;BME280;7231;59.370;18.016;2023-03-19T11:49:53;101379.53;;;9.28;88.83
14295;BME280;7231;59.370;18.016;2023-03-19T11:52:32;101363.53;;;9.41;88.81
14295;BME280;7231;59.370;18.016;2023-03-19T11:55:12;101380.13;;;9.42;87.00
14295;BME280;7231;59.370;18.016;2023-03-19T11:58:03;101376.34;;;9.35;86.32
14295;BME280;7231;59.370;18.016;2023-03-19T12:00:40;101347.13;;;9.04;86.40
14295;BME280;7231;59.370;18.016;2023-03-19T12:06:16;101373.34;;;9.47;87.44
14295;BME280;7231;59.370;18.016;2023-03-19T12:08:50;101366.75;;;9.57;86.24
14295;BME280;7231;59.370;18.016;2023-03-19T12:11:24;101332.19;;;9.22;85.61
14295;BME280;7231;59.370;18.016;2023-03-19T12:14:08;101363.47;;;9.40;85.77
14295;BME280;7231;59.370;18.016;2023-03-19T12:16:55;101367.81;;;9.39;86.00
14295;BME280;7231;59.370;18.016;2023-03-19T12:19:45;101346.03;;;9.40;86.68
14295;BME280;7231;59.370;18.016;2023-03-19T12:22:25;101306.66;;;9.37;86.61
14295;BME280;7231;59.370;18.016;2023-03-19T12:25:10;101356.91;;;9.72;86.02
14295;BME280;7231;59.370;18.016;2023-03-19T12:27:47;101345.31;;;9.44;85.35
14295;BME280;7231;59.370;18.016;2023-03-19T12:30:31;101359.25;;;9.23;84.94
14295;BME280;7231;59.370;18.016;2023-03-19T12:33:10;101319.88;;;8.78;86.08
14295;BME280;7231;59.370;18.016;2023-03-19T12:35:40;101348.78;;;9.02;87.11
14295;BME280;7231;59.370;18.016;2023-03-19T12:38:11;101350.81;;;8.88;86.29
14295;BME280;7231;59.370;18.016;2023-03-19T12:40:43;101288.00;;;8.46;86.56
14295;BME280;7231;59.370;18.016;2023-03-19T12:43:17;101346.97;;;8.80;87.22
14295;BME280;7231;59.370;18.016;2023-03-19T12:45:51;101286.69;;;8.37;87.04
14295;BME280;7231;59.370;18.016;2023-03-19T12:48:26;101343.94;;;8.71;87.36
14295;BME280;7231;59.370;18.016;2023-03-19T12:50:58;101347.06;;;8.62;87.13
14295;BME280;7231;59.370;18.016;2023-03-19T12:53:37;101289.28;;;8.18;87.51
14295;BME280;7231;59.370;18.016;2023-03-19T12:56:11;101285.16;;;8.03;88.01
14295;BME280;7231;59.370;18.016;2023-03-19T12:58:50;101324.63;;;8.29;89.06
14295;BME280;7231;59.370;18.016;2023-03-19T13:01:26;101330.44;;;8.41;89.56
14295;BME280;7231;59.370;18.016;2023-03-19T13:04:00;101328.28;;;8.52;89.57
14295;BME280;7231;59.370;18.016;2023-03-19T13:06:34;101330.09;;;8.53;89.28
14295;BME280;7231;59.370;18.016;2023-03-19T13:09:07;101330.44;;;8.41;89.15
14295;BME280;7231;59.370;18.016;2023-03-19T13:11:44;101328.44;;;8.35;89.38
14295;BME280;7231;59.370;18.016;2023-03-19T13:14:20;101296.22;;;8.17;89.77